Terminal Aerodrome Forecast
Issued by NWS

Home | Current Version | Previous Version | Text Only | Print | Product List | Glossary On
Versions: 1 2 3 4 5 6 7 8 9 10 11 12
787
FTUS44 KSJT 281720
TAFBBD
TAF
KBBD 281720Z 2818/2918 16012G18KT P6SM BKN025
     FM281900 16012G20KT P6SM OVC050
     FM290000 14015G23KT P6SM BKN100
     FM290200 12013G21KT P6SM TSRA BKN050CB
     FM290600 25006KT 4SM -SHRA OVC050
      TEMPO 2906/2908 4SM -TSRA BKN050CB
     FM290800 24004KT P6SM SKC
     FM291600 26011G18KT P6SM SKC
      AMD NOT SKED=

USA.gov is the U.S. government's official web portal to all federal, state and local government web resources and services.